Time;durP1;ratioP1;P1;durP2;ratioP2;P2;SDS_P1;SDS_P2;PMS_P1;PMS_P2;Temp;Humidity;BMP_temperature;BMP_pressure;BME280_temperature;BME280_humidity;BME280_pressure;Samples;Min_cycle;Max_cycle;Signal;HPM_P1;HPM_P2
2022/07/07 00:00:42;;;;;;;4.60;3.20;;;;;;;;;;5087565;28;20020;-85
2022/07/07 00:04:01;;;;;;;3.40;3.10;;;;;;;;;;5093756;28;20031;-83
2022/07/07 00:06:27;;;;;;;;;;;;;;;;;;5089874;28;20028;-86
2022/07/07 00:08:54;;;;;;;4.50;4.07;;;;;;;;;;5092663;28;19961;-84
2022/07/07 00:14:20;;;;;;;4.40;2.95;;;;;;;;;;5068272;28;20514;-86
2022/07/07 00:17:05;;;;;;;3.30;3.00;;;;;;;;;;5071194;28;20029;-87
2022/07/07 00:23:09;;;;;;;3.80;3.22;;;;;;;;;;5061884;28;20043;-85
2022/07/07 00:25:34;;;;;;;3.58;3.20;;;;;;;;;;5071693;28;20799;-85
2022/07/07 00:28:18;;;;;;;4.63;3.58;;;;;;;;;;5069061;28;20111;-85
2022/07/07 00:30:44;;;;;;;3.25;2.95;;;;;;;;;;5067231;28;20480;-83
2022/07/07 00:33:09;;;;;;;3.40;3.10;;;;;;;;;;5071675;28;20029;-83
2022/07/07 00:35:35;;;;;;;4.07;3.10;;;;;;;;;;5070282;28;20048;-83
2022/07/07 00:38:00;;;;;;;3.10;2.80;;;;;;;;;;5071503;28;20039;-85
2022/07/07 00:40:26;;;;;;;3.47;2.70;;;;;;;;;;5070229;28;20063;-83
2022/07/07 00:42:51;;;;;;;3.25;2.80;;;;;;;;;;5069943;28;20032;-84
2022/07/07 00:45:17;;;;;;;3.25;2.95;;;;;;;;;;5071396;28;20384;-83
2022/07/07 00:47:42;;;;;;;2.85;2.63;;;;;;;;;;5070952;28;20020;-84
2022/07/07 00:50:09;;;;;;;3.78;3.03;;;;;;;;;;5070145;28;20036;-84
2022/07/07 00:52:35;;;;;;;2.83;2.28;;;;;;;;;;5070968;28;20024;-83
2022/07/07 00:55:02;;;;;;;3.72;2.75;;;;;;;;;;5069777;28;20056;-84
2022/07/07 00:57:28;;;;;;;3.22;2.47;;;;;;;;;;5071199;28;20051;-84
2022/07/07 00:59:59;;;;;;;4.05;2.95;;;;;;;;;;5069991;28;20564;-84
2022/07/07 01:02:28;;;;;;;2.55;2.20;;;;;;;;;;5069615;28;20031;-83
2022/07/07 01:04:54;;;;;;;2.70;2.30;;;;;;;;;;5074723;28;20473;-85
2022/07/07 01:07:19;;;;;;;6.07;2.70;;;;;;;;;;5073395;28;20060;-83
2022/07/07 01:09:46;;;;;;;2.80;2.38;;;;;;;;;;5073408;28;20055;-82
2022/07/07 01:12:11;;;;;;;2.83;2.42;;;;;;;;;;5074204;28;20400;-83
2022/07/07 01:14:38;;;;;;;2.72;2.22;;;;;;;;;;5074510;28;20025;-84
2022/07/07 01:17:04;;;;;;;2.47;2.28;;;;;;;;;;5074616;28;20054;-83
2022/07/07 01:19:29;;;;;;;4.05;2.30;;;;;;;;;;5074319;28;20033;-83
2022/07/07 01:22:00;;;;;;;2.30;2.03;;;;;;;;;;5074568;28;20078;-85
2022/07/07 01:24:28;;;;;;;3.15;1.98;;;;;;;;;;5074425;28;20118;-83
2022/07/07 01:27:17;;;;;;;2.55;2.00;;;;;;;;;;5073298;28;20456;-85
2022/07/07 01:29:45;;;;;;;3.92;2.00;;;;;;;;;;5073180;28;20032;-85
2022/07/07 01:32:11;;;;;;;3.45;1.98;;;;;;;;;;5074705;28;20024;-84
2022/07/07 01:34:38;;;;;;;4.18;2.08;;;;;;;;;;5073082;28;20055;-83
2022/07/07 01:37:05;;;;;;;2.75;1.83;;;;;;;;;;5074150;28;20040;-84
2022/07/07 01:39:31;;;;;;;2.95;1.75;;;;;;;;;;5074447;28;20499;-84
2022/07/07 01:41:56;;;;;;;2.65;1.60;;;;;;;;;;5071852;28;20017;-84
2022/07/07 01:44:22;;;;;;;2.60;1.88;;;;;;;;;;5071150;28;20024;-83
2022/07/07 01:46:47;;;;;;;2.78;1.63;;;;;;;;;;5074103;28;20463;-84
2022/07/07 01:49:13;;;;;;;2.25;1.40;;;;;;;;;;5074103;28;20035;-85
2022/07/07 01:51:38;;;;;;;2.63;1.67;;;;;;;;;;5074060;28;20024;-85
2022/07/07 01:54:04;;;;;;;3.00;1.80;;;;;;;;;;5074142;28;20113;-83
2022/07/07 01:56:29;;;;;;;3.60;1.60;;;;;;;;;;5072841;28;20474;-84
2022/07/07 01:58:54;;;;;;;4.03;1.60;;;;;;;;;;5072558;28;20034;-83
2022/07/07 02:01:20;;;;;;;2.40;1.60;;;;;;;;;;5073581;28;20388;-82
2022/07/07 02:03:46;;;;;;;4.85;1.55;;;;;;;;;;5074184;28;20477;-84
2022/07/07 02:06:11;;;;;;;2.55;1.90;;;;;;;;;;5073576;28;20085;-84
2022/07/07 02:08:37;;;;;;;1.77;1.50;;;;;;;;;;5072295;28;20380;-84
2022/07/07 02:11:14;;;;;;;1.90;1.35;;;;;;;;;;5073716;28;20507;-84
2022/07/07 02:13:44;;;;;;;2.15;1.67;;;;;;;;;;5071127;28;20052;-85
2022/07/07 02:16:10;;;;;;;1.40;1.30;;;;;;;;;;5073425;28;20060;-85
2022/07/07 02:18:37;;;;;;;1.88;1.50;;;;;;;;;;5073348;28;20622;-83
2022/07/07 02:21:04;;;;;;;2.28;1.30;;;;;;;;;;5071308;28;20090;-83
2022/07/07 02:23:30;;;;;;;3.30;1.60;;;;;;;;;;5073121;28;20104;-82
2022/07/07 02:25:56;;;;;;;1.50;1.30;;;;;;;;;;5070695;28;20044;-84
2022/07/07 02:28:23;;;;;;;1.58;1.42;;;;;;;;;;5073364;28;20079;-84
2022/07/07 02:30:52;;;;;;;1.63;1.20;;;;;;;;;;5072555;28;20027;-84
2022/07/07 02:33:18;;;;;;;1.83;1.57;;;;;;;;;;5073143;28;20033;-83
2022/07/07 02:35:44;;;;;;;2.63;1.55;;;;;;;;;;5071264;28;20032;-84
2022/07/07 02:38:10;;;;;;;3.45;1.30;;;;;;;;;;5073277;28;20086;-85
2022/07/07 02:40:36;;;;;;;1.63;1.50;;;;;;;;;;5068824;28;20028;-83
2022/07/07 02:43:01;;;;;;;2.38;1.40;;;;;;;;;;5071737;28;20039;-83
2022/07/07 02:45:26;;;;;;;1.40;1.20;;;;;;;;;;5067462;28;20113;-84
2022/07/07 02:47:52;;;;;;;2.05;1.50;;;;;;;;;;5071902;28;20024;-84
2022/07/07 02:50:17;;;;;;;1.38;1.27;;;;;;;;;;5069235;28;20032;-84
2022/07/07 02:52:43;;;;;;;1.80;1.33;;;;;;;;;;5072496;28;20028;-84
2022/07/07 02:55:09;;;;;;;1.63;1.15;;;;;;;;;;5069632;28;20052;-83
2022/07/07 02:57:34;;;;;;;1.92;1.45;;;;;;;;;;5071286;28;20388;-84
2022/07/07 03:00:00;;;;;;;1.75;1.25;;;;;;;;;;5072694;28;20024;-84
2022/07/07 03:02:26;;;;;;;1.50;1.30;;;;;;;;;;5072683;28;20055;-84
2022/07/07 03:04:51;;;;;;;3.80;1.33;;;;;;;;;;5067473;28;20032;-83
2022/07/07 03:07:19;;;;;;;3.53;1.45;;;;;;;;;;5072748;28;20033;-84
2022/07/07 03:09:45;;;;;;;2.10;1.40;;;;;;;;;;5070113;28;20044;-84
2022/07/07 03:12:10;;;;;;;1.90;1.40;;;;;;;;;;5072561;28;20146;-83
2022/07/07 03:14:36;;;;;;;1.85;1.13;;;;;;;;;;5070822;28;20105;-83
2022/07/07 03:17:01;;;;;;;4.47;1.38;;;;;;;;;;5072156;28;20037;-83
2022/07/07 03:19:27;;;;;;;1.60;1.30;;;;;;;;;;5072483;28;20048;-84
2022/07/07 03:21:52;;;;;;;4.78;1.48;;;;;;;;;;5072206;28;20400;-84
2022/07/07 03:24:18;;;;;;;1.50;1.30;;;;;;;;;;5070951;28;20024;-84
2022/07/07 03:26:43;;;;;;;1.38;1.27;;;;;;;;;;5072089;28;20029;-83
2022/07/07 03:29:09;;;;;;;1.65;1.40;;;;;;;;;;5069842;28;20560;-83
2022/07/07 03:31:34;;;;;;;1.77;1.30;;;;;;;;;;5069067;28;20020;-84
2022/07/07 03:33:59;;;;;;;2.25;1.27;;;;;;;;;;5069188;28;20166;-84
2022/07/07 03:36:25;;;;;;;2.60;1.30;;;;;;;;;;5071023;28;20099;-85
2022/07/07 03:38:50;;;;;;;1.38;1.13;;;;;;;;;;5071211;28;20090;-82
2022/07/07 03:41:17;;;;;;;1.33;1.20;;;;;;;;;;5072114;28;20036;-84
2022/07/07 03:43:42;;;;;;;1.05;0.90;;;;;;;;;;5072021;28;20028;-85
2022/07/07 03:46:07;;;;;;;1.85;1.48;;;;;;;;;;5070816;28;20066;-87
2022/07/07 03:48:33;;;;;;;2.38;1.40;;;;;;;;;;5071972;28;20024;-82
2022/07/07 03:50:59;;;;;;;2.25;1.15;;;;;;;;;;5071470;28;20024;-83
2022/07/07 03:53:25;;;;;;;1.35;1.13;;;;;;;;;;5072149;28;20091;-83
2022/07/07 03:55:50;;;;;;;2.15;1.50;;;;;;;;;;5070715;28;20370;-84
2022/07/07 03:58:15;;;;;;;1.63;1.20;;;;;;;;;;5069247;28;20035;-83
2022/07/07 04:00:41;;;;;;;2.15;1.25;;;;;;;;;;5071868;28;20472;-84
2022/07/07 04:03:07;;;;;;;1.40;1.30;;;;;;;;;;5071768;28;20035;-83
2022/07/07 04:05:32;;;;;;;2.05;1.25;;;;;;;;;;5070495;28;20043;-84
2022/07/07 04:07:58;;;;;;;2.05;1.48;;;;;;;;;;5071460;28;20078;-83
2022/07/07 04:10:23;;;;;;;1.20;1.10;;;;;;;;;;5071776;28;20126;-82
2022/07/07 04:12:57;;;;;;;1.27;1.17;;;;;;;;;;5071977;28;20089;-82
2022/07/07 04:15:22;;;;;;;1.70;1.40;;;;;;;;;;5103144;28;20033;-83
2022/07/07 04:17:48;;;;;;;1.83;1.30;;;;;;;;;;5071768;28;20465;-84
2022/07/07 04:20:13;;;;;;;1.40;1.10;;;;;;;;;;5069200;28;20082;-83
2022/07/07 04:22:42;;;;;;;1.42;1.17;;;;;;;;;;5072081;28;20161;-85
2022/07/07 04:25:08;;;;;;;1.60;1.23;;;;;;;;;;5071712;28;20017;-84
2022/07/07 04:27:33;;;;;;;2.28;1.15;;;;;;;;;;5070086;28;20073;-84
2022/07/07 04:29:59;;;;;;;1.88;1.33;;;;;;;;;;5072126;28;20029;-86
2022/07/07 04:32:24;;;;;;;1.10;1.00;;;;;;;;;;5071293;28;20028;-84
2022/07/07 04:34:50;;;;;;;2.80;1.20;;;;;;;;;;5070741;28;20429;-85
2022/07/07 04:37:16;;;;;;;1.10;0.90;;;;;;;;;;5069879;28;20052;-85
2022/07/07 04:39:41;;;;;;;1.90;1.05;;;;;;;;;;5072857;28;20104;-85
2022/07/07 04:42:07;;;;;;;1.35;1.10;;;;;;;;;;5074762;28;20021;-84
2022/07/07 04:44:32;;;;;;;2.53;1.58;;;;;;;;;;5074969;28;20031;-83
2022/07/07 04:46:58;;;;;;;1.30;1.05;;;;;;;;;;5075611;28;20036;-84
2022/07/07 04:49:23;;;;;;;2.00;1.27;;;;;;;;;;5072635;28;20085;-84
2022/07/07 04:51:48;;;;;;;2.45;1.40;;;;;;;;;;5072576;28;20090;-86
2022/07/07 04:54:15;;;;;;;1.38;1.20;;;;;;;;;;5075051;28;20048;-83
2022/07/07 04:56:41;;;;;;;1.40;1.27;;;;;;;;;;5073296;28;20531;-85
2022/07/07 04:59:06;;;;;;;2.85;1.20;;;;;;;;;;5074724;28;20040;-82
2022/07/07 05:01:32;;;;;;;1.88;1.20;;;;;;;;;;5074466;28;20040;-84
2022/07/07 05:03:57;;;;;;;2.13;1.30;;;;;;;;;;5073469;28;20040;-83
2022/07/07 05:06:23;;;;;;;2.28;1.20;;;;;;;;;;5074936;28;20514;-84
2022/07/07 05:08:48;;;;;;;1.75;1.30;;;;;;;;;;5075079;28;20431;-83
2022/07/07 05:11:13;;;;;;;2.75;1.40;;;;;;;;;;5071977;28;20017;-83
2022/07/07 05:13:39;;;;;;;2.58;1.10;;;;;;;;;;5072733;28;20032;-84
2022/07/07 05:16:05;;;;;;;1.63;1.10;;;;;;;;;;5068030;28;20032;-84
2022/07/07 05:18:31;;;;;;;2.40;1.20;;;;;;;;;;5073136;28;20032;-84
2022/07/07 05:20:57;;;;;;;1.58;1.10;;;;;;;;;;5074250;28;20048;-86
2022/07/07 05:23:25;;;;;;;1.73;1.27;;;;;;;;;;5075033;28;20032;-85
2022/07/07 05:25:52;;;;;;;2.55;1.50;;;;;;;;;;5072235;28;20024;-85
2022/07/07 05:28:17;;;;;;;1.33;1.23;;;;;;;;;;5072978;28;20024;-85
2022/07/07 05:30:42;;;;;;;1.83;1.50;;;;;;;;;;5069921;28;20028;-85
2022/07/07 05:33:08;;;;;;;1.30;1.20;;;;;;;;;;5068000;28;20029;-85
2022/07/07 05:35:35;;;;;;;3.88;1.40;;;;;;;;;;5069441;28;20032;-86
2022/07/07 05:38:01;;;;;;;1.77;1.38;;;;;;;;;;5072533;28;20025;-85
2022/07/07 05:40:27;;;;;;;2.47;1.23;;;;;;;;;;5071383;28;20031;-84
2022/07/07 05:42:52;;;;;;;2.17;1.60;;;;;;;;;;5071998;28;20115;-84
2022/07/07 05:45:19;;;;;;;3.22;1.50;;;;;;;;;;5073666;28;20024;-86
2022/07/07 05:47:44;;;;;;;2.55;1.50;;;;;;;;;;5071613;28;20028;-84
2022/07/07 05:50:10;;;;;;;1.55;1.25;;;;;;;;;;5072598;28;20067;-83
2022/07/07 05:52:35;;;;;;;4.10;1.40;;;;;;;;;;5073072;28;20016;-84
2022/07/07 05:55:01;;;;;;;2.55;1.33;;;;;;;;;;5072392;28;20040;-84
2022/07/07 05:57:26;;;;;;;2.20;1.58;;;;;;;;;;5072413;28;20491;-89
2022/07/07 05:59:52;;;;;;;1.77;1.45;;;;;;;;;;5073940;28;20035;-84
2022/07/07 06:02:17;;;;;;;1.45;1.15;;;;;;;;;;5073726;28;20040;-86
2022/07/07 06:04:43;;;;;;;2.38;1.52;;;;;;;;;;5073157;28;20035;-84
2022/07/07 06:07:08;;;;;;;1.75;1.33;;;;;;;;;;5072225;28;20032;-83
2022/07/07 06:09:34;;;;;;;2.08;1.60;;;;;;;;;;5072224;28;20392;-86
2022/07/07 06:11:59;;;;;;;2.03;1.33;;;;;;;;;;5072970;28;20495;-86
2022/07/07 06:14:26;;;;;;;2.38;1.10;;;;;;;;;;5071762;28;20033;-87
2022/07/07 06:16:52;;;;;;;1.33;1.20;;;;;;;;;;5067530;28;20062;-83
2022/07/07 06:19:17;;;;;;;1.67;1.30;;;;;;;;;;5071842;28;20048;-83
2022/07/07 06:21:43;;;;;;;1.63;1.50;;;;;;;;;;5073160;28;20028;-87
2022/07/07 06:24:09;;;;;;;1.50;1.40;;;;;;;;;;5073596;28;20525;-84
2022/07/07 06:26:34;;;;;;;3.50;1.30;;;;;;;;;;5072682;28;20093;-84
2022/07/07 06:29:00;;;;;;;1.95;1.48;;;;;;;;;;5073766;28;20536;-86
2022/07/07 06:31:25;;;;;;;2.05;1.30;;;;;;;;;;5071992;28;20024;-85
2022/07/07 06:33:51;;;;;;;3.10;1.40;;;;;;;;;;5069999;28;20020;-85
2022/07/07 06:36:16;;;;;;;3.97;1.50;;;;;;;;;;5073172;28;20456;-85
2022/07/07 06:38:42;;;;;;;1.73;1.42;;;;;;;;;;5072810;28;20131;-85
2022/07/07 06:41:07;;;;;;;2.55;1.20;;;;;;;;;;5073069;28;20021;-81
2022/07/07 06:43:33;;;;;;;1.20;1.10;;;;;;;;;;5067637;28;20025;-84
2022/07/07 06:45:58;;;;;;;1.98;1.55;;;;;;;;;;5070695;28;20021;-84
2022/07/07 06:48:24;;;;;;;1.55;1.27;;;;;;;;;;5070807;28;20028;-84
2022/07/07 06:50:49;;;;;;;1.60;1.30;;;;;;;;;;5072888;28;20024;-86
2022/07/07 06:53:15;;;;;;;2.55;1.35;;;;;;;;;;5064083;28;20058;-85
2022/07/07 06:55:41;;;;;;;1.98;1.50;;;;;;;;;;5068189;28;20099;-85
2022/07/07 06:58:07;;;;;;;1.58;1.48;;;;;;;;;;5070956;28;20024;-85
2022/07/07 07:00:33;;;;;;;1.63;1.50;;;;;;;;;;5067684;28;20029;-86
2022/07/07 07:02:58;;;;;;;2.50;1.50;;;;;;;;;;5071088;28;20025;-86
2022/07/07 07:05:26;;;;;;;1.98;1.42;;;;;;;;;;5066280;28;20027;-86
2022/07/07 07:07:52;;;;;;;2.70;1.55;;;;;;;;;;5069039;28;20039;-85
2022/07/07 07:10:18;;;;;;;1.77;1.40;;;;;;;;;;5069232;28;20029;-85
2022/07/07 07:12:43;;;;;;;2.15;1.42;;;;;;;;;;5071683;28;20024;-84
2022/07/07 07:15:10;;;;;;;3.05;1.58;;;;;;;;;;5066850;28;20028;-86
2022/07/07 07:17:36;;;;;;;1.63;1.48;;;;;;;;;;5070126;28;20028;-86
2022/07/07 07:20:03;;;;;;;1.45;1.20;;;;;;;;;;5072102;28;20050;-87
2022/07/07 07:22:34;;;;;;;1.83;1.33;;;;;;;;;;5068009;28;20048;-86
2022/07/07 07:24:59;;;;;;;2.00;1.50;;;;;;;;;;5071721;28;20021;-85
2022/07/07 07:27:24;;;;;;;3.22;2.47;;;;;;;;;;5069944;28;20119;-85
2022/07/07 07:29:50;;;;;;;1.45;1.35;;;;;;;;;;5072380;28;20021;-86
2022/07/07 07:32:15;;;;;;;1.50;1.30;;;;;;;;;;5072353;28;20093;-85
2022/07/07 07:34:41;;;;;;;1.83;1.48;;;;;;;;;;5070729;28;20025;-87
2022/07/07 07:37:06;;;;;;;3.40;1.50;;;;;;;;;;5070915;28;20036;-86
2022/07/07 07:39:32;;;;;;;1.67;1.58;;;;;;;;;;5070832;28;20024;-85
2022/07/07 07:41:57;;;;;;;2.88;1.83;;;;;;;;;;5068908;28;20028;-85
2022/07/07 07:47:06;;;;;;;3.38;1.73;;;;;;;;;;5071675;28;20393;-86
2022/07/07 07:49:32;;;;;;;4.15;1.50;;;;;;;;;;5070020;28;20024;-86
2022/07/07 07:51:57;;;;;;;1.40;1.30;;;;;;;;;;5070354;28;20093;-85
2022/07/07 07:54:23;;;;;;;3.72;2.10;;;;;;;;;;5071803;28;20043;-86
2022/07/07 07:56:48;;;;;;;4.38;1.63;;;;;;;;;;5070793;28;20137;-85
2022/07/07 07:59:14;;;;;;;3.40;1.42;;;;;;;;;;5071974;28;20024;-86
2022/07/07 08:01:39;;;;;;;2.33;1.63;;;;;;;;;;5070428;28;20055;-85
2022/07/07 08:04:05;;;;;;;2.80;1.35;;;;;;;;;;5070802;28;20468;-84
2022/07/07 08:06:31;;;;;;;1.73;1.35;;;;;;;;;;5071625;28;20388;-87
2022/07/07 08:08:56;;;;;;;1.58;1.40;;;;;;;;;;5070198;28;20078;-85
2022/07/07 08:11:21;;;;;;;1.55;1.35;;;;;;;;;;5071423;28;20834;-87
2022/07/07 08:13:47;;;;;;;3.05;1.20;;;;;;;;;;5070051;28;20483;-85
2022/07/07 08:16:12;;;;;;;1.55;1.35;;;;;;;;;;5070585;28;20085;-85
2022/07/07 08:18:38;;;;;;;2.13;1.40;;;;;;;;;;5071948;28;20078;-85
2022/07/07 08:21:03;;;;;;;3.22;1.27;;;;;;;;;;5071493;28;20040;-87
2022/07/07 08:23:29;;;;;;;1.25;1.10;;;;;;;;;;5071563;28;20107;-87
2022/07/07 08:25:54;;;;;;;1.30;1.20;;;;;;;;;;5070460;28;20024;-86
2022/07/07 08:28:20;;;;;;;2.10;1.40;;;;;;;;;;5071533;28;20024;-85
2022/07/07 08:30:45;;;;;;;2.17;1.38;;;;;;;;;;5070246;28;20031;-85
2022/07/07 08:33:11;;;;;;;1.92;1.25;;;;;;;;;;5070609;28;20028;-87
2022/07/07 08:35:36;;;;;;;3.67;1.40;;;;;;;;;;5070294;28;20028;-87
2022/07/07 08:38:02;;;;;;;2.30;1.40;;;;;;;;;;5071292;28;20113;-86
2022/07/07 08:40:28;;;;;;;3.45;1.50;;;;;;;;;;5069541;28;20143;-85
2022/07/07 08:42:53;;;;;;;1.42;1.08;;;;;;;;;;5071064;28;20115;-86
2022/07/07 08:45:19;;;;;;;1.60;1.27;;;;;;;;;;5068197;28;20465;-87
2022/07/07 08:47:45;;;;;;;2.72;1.42;;;;;;;;;;5066339;28;20033;-85
2022/07/07 08:50:10;;;;;;;1.40;1.30;;;;;;;;;;5069726;28;20029;-85
2022/07/07 08:52:36;;;;;;;4.95;2.75;;;;;;;;;;5068713;28;20021;-87
2022/07/07 08:55:02;;;;;;;1.50;1.38;;;;;;;;;;5070205;28;20051;-86
2022/07/07 08:57:28;;;;;;;1.52;1.30;;;;;;;;;;5069943;28;20025;-85
2022/07/07 08:59:56;;;;;;;2.00;1.38;;;;;;;;;;5070414;28;20021;-85
2022/07/07 09:02:23;;;;;;;1.70;1.40;;;;;;;;;;5069187;28;20020;-85
2022/07/07 09:04:50;;;;;;;1.88;1.23;;;;;;;;;;5071264;28;20039;-85
2022/07/07 09:07:15;;;;;;;2.50;1.33;;;;;;;;;;5070888;28;20028;-85
2022/07/07 09:09:46;;;;;;;2.10;1.30;;;;;;;;;;5067925;28;20419;-87
2022/07/07 09:12:13;;;;;;;1.55;1.30;;;;;;;;;;5067181;28;20495;-86
2022/07/07 09:14:42;;;;;;;2.03;1.50;;;;;;;;;;5071355;28;20024;-88
2022/07/07 09:17:33;;;;;;;1.70;1.45;;;;;;;;;;5070777;28;20035;-85
2022/07/07 09:20:08;;;;;;;1.70;1.40;;;;;;;;;;5066059;28;20028;-86
2022/07/07 09:22:56;;;;;;;2.65;1.65;;;;;;;;;;5067827;28;20021;-87
2022/07/07 09:25:24;;;;;;;3.45;1.50;;;;;;;;;;5072641;28;20032;-86
2022/07/07 09:28:03;;;;;;;4.50;1.40;;;;;;;;;;5072813;28;20025;-87
2022/07/07 09:30:37;;;;;;;2.58;1.60;;;;;;;;;;5071233;28;20098;-86
2022/07/07 09:33:10;;;;;;;1.75;1.40;;;;;;;;;;5074872;28;20024;-86
2022/07/07 09:38:23;;;;;;;1.70;1.52;;;;;;;;;;5073378;28;20498;-86
2022/07/07 09:40:58;;;;;;;2.33;1.30;;;;;;;;;;5071221;28;20035;-87
2022/07/07 09:43:24;;;;;;;1.85;1.50;;;;;;;;;;5073194;28;20492;-85
2022/07/07 09:46:14;;;;;;;1.67;1.40;;;;;;;;;;5071952;28;20028;-86
2022/07/07 09:48:45;;;;;;;1.88;1.65;;;;;;;;;;5071704;28;20365;-84
2022/07/07 09:51:17;;;;;;;3.83;1.33;;;;;;;;;;5074101;28;20043;-86
2022/07/07 09:53:53;;;;;;;1.35;1.25;;;;;;;;;;5072272;28;20654;-88
2022/07/07 09:56:23;;;;;;;3.65;1.60;;;;;;;;;;5072266;28;20028;-90
2022/07/07 09:58:49;;;;;;;1.98;1.48;;;;;;;;;;5100400;28;20024;-87
2022/07/07 10:01:17;;;;;;;1.92;1.38;;;;;;;;;;5069151;28;20058;-87
2022/07/07 10:03:42;;;;;;;2.58;1.58;;;;;;;;;;5071472;28;20565;-85
2022/07/07 10:06:09;;;;;;;2.00;1.45;;;;;;;;;;5074169;28;20028;-85
2022/07/07 10:08:42;;;;;;;1.88;1.58;;;;;;;;;;5070933;28;20024;-84
2022/07/07 10:11:09;;;;;;;3.28;1.73;;;;;;;;;;5068131;28;20384;-86
2022/07/07 10:13:37;;;;;;;2.60;1.42;;;;;;;;;;5069827;28;20071;-85
2022/07/07 10:16:05;;;;;;;1.85;1.42;;;;;;;;;;5072806;28;20472;-86
2022/07/07 10:18:32;;;;;;;2.70;1.70;;;;;;;;;;5073650;28;20017;-86
2022/07/07 10:20:58;;;;;;;1.95;1.40;;;;;;;;;;5072073;28;20055;-86
2022/07/07 10:23:24;;;;;;;2.15;1.80;;;;;;;;;;5072638;28;20476;-84
2022/07/07 10:26:03;;;;;;;2.70;1.50;;;;;;;;;;5069796;28;20021;-86
2022/07/07 10:28:56;;;;;;;3.08;1.30;;;;;;;;;;5070814;28;20032;-87
2022/07/07 10:31:23;;;;;;;2.70;1.55;;;;;;;;;;5069514;28;20039;-86
2022/07/07 10:33:54;;;;;;;2.45;1.58;;;;;;;;;;5072430;28;20024;-86
2022/07/07 10:36:19;;;;;;;2.72;1.48;;;;;;;;;;5072333;28;20380;-87
2022/07/07 10:38:47;;;;;;;1.55;1.27;;;;;;;;;;5072307;28;20017;-87
2022/07/07 10:41:16;;;;;;;1.73;1.45;;;;;;;;;;5071662;28;20103;-89
2022/07/07 10:43:47;;;;;;;1.73;1.40;;;;;;;;;;5067645;28;20520;-84
2022/07/07 10:46:13;;;;;;;2.33;1.25;;;;;;;;;;5071041;28;20044;-86
2022/07/07 10:48:45;;;;;;;2.92;1.58;;;;;;;;;;5071680;28;20101;-85
2022/07/07 10:51:19;;;;;;;1.40;1.30;;;;;;;;;;5070119;28;20113;-85
2022/07/07 10:54:01;;;;;;;1.50;1.40;;;;;;;;;;5072129;28;20045;-84
2022/07/07 10:56:26;;;;;;;2.33;1.35;;;;;;;;;;5069132;28;20016;-87
2022/07/07 10:58:57;;;;;;;3.60;1.50;;;;;;;;;;5071415;28;20066;-85
2022/07/07 11:01:25;;;;;;;3.00;1.55;;;;;;;;;;5070082;28;20047;-86
2022/07/07 11:03:51;;;;;;;2.17;1.40;;;;;;;;;;5072592;28;20024;-85
2022/07/07 11:06:16;;;;;;;1.40;1.30;;;;;;;;;;5068445;28;20441;-86
2022/07/07 11:08:42;;;;;;;2.55;1.40;;;;;;;;;;5072571;28;20587;-84
2022/07/07 11:11:08;;;;;;;1.33;1.23;;;;;;;;;;5071114;28;20389;-87
2022/07/07 11:13:36;;;;;;;1.30;1.13;;;;;;;;;;5072292;28;20059;-85
2022/07/07 11:16:19;;;;;;;1.90;1.60;;;;;;;;;;5070016;28;20029;-87
2022/07/07 11:19:04;;;;;;;2.25;1.38;;;;;;;;;;5069632;28;20089;-85
2022/07/07 11:21:36;;;;;;;2.13;1.33;;;;;;;;;;5071906;28;20457;-85
2022/07/07 11:24:12;;;;;;;3.92;1.67;;;;;;;;;;5072610;28;20032;-86
2022/07/07 11:26:38;;;;;;;2.03;1.40;;;;;;;;;;5069372;28;20040;-86
2022/07/07 11:29:03;;;;;;;2.20;1.60;;;;;;;;;;5070439;28;20024;-87
2022/07/07 11:31:29;;;;;;;2.17;1.40;;;;;;;;;;5067855;28;20099;-88
2022/07/07 11:33:56;;;;;;;1.95;1.50;;;;;;;;;;5072281;28;20098;-87
2022/07/07 11:36:25;;;;;;;1.77;1.45;;;;;;;;;;5069199;28;20027;-87
2022/07/07 11:38:54;;;;;;;2.10;1.67;;;;;;;;;;5070109;28;20027;-86
2022/07/07 11:41:19;;;;;;;1.40;1.30;;;;;;;;;;5070320;28;20028;-87
2022/07/07 11:43:54;;;;;;;2.17;1.38;;;;;;;;;;5069035;28;20033;-87
2022/07/07 11:46:23;;;;;;;1.50;1.40;;;;;;;;;;5068289;28;20028;-87
2022/07/07 11:48:49;;;;;;;1.40;1.30;;;;;;;;;;5072002;28;20013;-87
2022/07/07 11:51:14;;;;;;;1.77;1.35;;;;;;;;;;5071327;28;20039;-87
2022/07/07 11:53:39;;;;;;;1.80;1.33;;;;;;;;;;5069631;28;20491;-86
2022/07/07 11:56:06;;;;;;;1.50;1.40;;;;;;;;;;5067142;28;20087;-86
2022/07/07 11:58:32;;;;;;;2.67;1.63;;;;;;;;;;5070007;28;20033;-87
2022/07/07 12:00:59;;;;;;;1.13;1.02;;;;;;;;;;5071751;28;20020;-86
2022/07/07 12:03:33;;;;;;;2.30;1.33;;;;;;;;;;5070107;28;20063;-85
2022/07/07 12:05:59;;;;;;;1.67;1.48;;;;;;;;;;5065929;28;20487;-87
2022/07/07 12:08:32;;;;;;;3.08;1.48;;;;;;;;;;5067893;28;20025;-87
2022/07/07 12:10:58;;;;;;;1.95;1.40;;;;;;;;;;5067886;28;20036;-87
2022/07/07 12:13:25;;;;;;;1.80;1.45;;;;;;;;;;5069752;28;20028;-84
2022/07/07 12:15:51;;;;;;;1.65;1.27;;;;;;;;;;5069657;28;20035;-86
2022/07/07 12:18:30;;;;;;;3.05;1.20;;;;;;;;;;5061390;28;20028;-86
2022/07/07 12:21:02;;;;;;;2.22;1.60;;;;;;;;;;5067479;28;20438;-87
2022/07/07 12:23:28;;;;;;;1.80;1.20;;;;;;;;;;5068808;28;20502;-86
2022/07/07 12:26:07;;;;;;;2.55;1.55;;;;;;;;;;5069971;28;20025;-86
2022/07/07 12:28:35;;;;;;;1.77;1.17;;;;;;;;;;5070924;28;20424;-85
2022/07/07 12:31:00;;;;;;;1.73;1.20;;;;;;;;;;5069758;28;20028;-85
2022/07/07 12:33:26;;;;;;;5.60;1.20;;;;;;;;;;5071269;28;20035;-87
2022/07/07 12:35:51;;;;;;;1.45;1.10;;;;;;;;;;5070053;28;20131;-84
2022/07/07 12:38:34;;;;;;;2.60;1.20;;;;;;;;;;5070978;28;20024;-85
2022/07/07 12:40:59;;;;;;;2.05;1.23;;;;;;;;;;5068324;28;20025;-84
2022/07/07 12:43:31;;;;;;;2.17;1.30;;;;;;;;;;5069195;28;20027;-87
2022/07/07 12:46:12;;;;;;;1.17;1.00;;;;;;;;;;5069660;28;20070;-85
2022/07/07 12:48:51;;;;;;;1.17;1.05;;;;;;;;;;5067444;28;20029;-87
2022/07/07 12:51:23;;;;;;;2.17;1.30;;;;;;;;;;5066880;28;20484;-86
2022/07/07 12:53:49;;;;;;;1.63;1.00;;;;;;;;;;5068194;28;20109;-86
2022/07/07 12:56:15;;;;;;;2.17;1.30;;;;;;;;;;5069769;28;20040;-84
2022/07/07 12:58:46;;;;;;;1.55;1.17;;;;;;;;;;5072448;28;20027;-86
2022/07/07 13:01:23;;;;;;;3.25;1.77;;;;;;;;;;5074863;28;20032;-85
2022/07/07 13:03:54;;;;;;;1.25;1.15;;;;;;;;;;5074691;28;20047;-86
2022/07/07 13:06:22;;;;;;;1.55;1.10;;;;;;;;;;5075207;28;20532;-87
2022/07/07 13:08:49;;;;;;;1.10;1.00;;;;;;;;;;5074796;28;20554;-86
2022/07/07 13:11:16;;;;;;;1.88;1.25;;;;;;;;;;5074837;28;20020;-85
2022/07/07 13:13:41;;;;;;;1.40;1.23;;;;;;;;;;5071284;28;20386;-87
2022/07/07 13:16:08;;;;;;;1.83;1.08;;;;;;;;;;5073357;28;20058;-84
2022/07/07 13:18:34;;;;;;;1.02;0.98;;;;;;;;;;5073389;28;20125;-85
2022/07/07 13:21:01;;;;;;;1.65;1.20;;;;;;;;;;5072096;28;20059;-86
2022/07/07 13:23:29;;;;;;;1.90;1.30;;;;;;;;;;5073300;28;20028;-86
2022/07/07 13:25:56;;;;;;;1.40;1.07;;;;;;;;;;5074390;28;20035;-86
2022/07/07 13:28:22;;;;;;;2.40;1.60;;;;;;;;;;5074297;28;20025;-86
2022/07/07 13:30:50;;;;;;;4.70;1.65;;;;;;;;;;5073062;28;20028;-87
2022/07/07 13:33:16;;;;;;;2.60;1.40;;;;;;;;;;5073077;28;20078;-87
2022/07/07 13:35:42;;;;;;;1.20;1.10;;;;;;;;;;5071895;28;20032;-86
2022/07/07 13:38:08;;;;;;;3.50;1.25;;;;;;;;;;5073544;28;20031;-86
2022/07/07 13:40:36;;;;;;;1.92;1.10;;;;;;;;;;5074040;28;20029;-85
2022/07/07 13:43:03;;;;;;;1.77;1.23;;;;;;;;;;5072607;28;20093;-84
2022/07/07 13:45:28;;;;;;;2.58;0.98;;;;;;;;;;5072567;28;20060;-85
2022/07/07 13:47:53;;;;;;;1.90;1.00;;;;;;;;;;5074168;28;20060;-88
2022/07/07 13:50:19;;;;;;;1.23;1.10;;;;;;;;;;5073531;28;20028;-86
2022/07/07 13:52:44;;;;;;;1.30;1.10;;;;;;;;;;5073083;28;20038;-86
2022/07/07 13:55:10;;;;;;;1.77;1.30;;;;;;;;;;5070833;28;20060;-84
2022/07/07 13:57:35;;;;;;;2.70;1.30;;;;;;;;;;5072578;28;20021;-85
2022/07/07 14:00:03;;;;;;;1.05;1.02;;;;;;;;;;5072923;28;20028;-85
2022/07/07 14:02:28;;;;;;;1.48;1.15;;;;;;;;;;5073641;28;20079;-89
2022/07/07 14:04:54;;;;;;;2.28;1.60;;;;;;;;;;5073750;28;20025;-86
2022/07/07 14:07:20;;;;;;;2.00;1.45;;;;;;;;;;5073757;28;20029;-86
2022/07/07 14:09:46;;;;;;;1.40;1.30;;;;;;;;;;5071075;28;20024;-84
2022/07/07 14:12:11;;;;;;;2.08;1.30;;;;;;;;;;5071081;28;20066;-88
2022/07/07 14:14:37;;;;;;;2.05;1.20;;;;;;;;;;5073757;28;20055;-84
2022/07/07 14:17:03;;;;;;;1.40;1.20;;;;;;;;;;5069889;28;20114;-83
2022/07/07 14:19:28;;;;;;;1.60;1.10;;;;;;;;;;5073387;28;20091;-86
2022/07/07 14:21:54;;;;;;;1.67;1.10;;;;;;;;;;5066498;28;20515;-86
2022/07/07 14:24:20;;;;;;;1.50;1.40;;;;;;;;;;5072624;28;20362;-85
2022/07/07 14:26:45;;;;;;;1.60;1.30;;;;;;;;;;5071569;28;20036;-85
2022/07/07 14:29:12;;;;;;;3.15;1.20;;;;;;;;;;5064175;28;20118;-85
2022/07/07 14:31:40;;;;;;;2.35;1.35;;;;;;;;;;5071044;28;20437;-85
2022/07/07 14:34:06;;;;;;;1.52;1.40;;;;;;;;;;5069965;28;20040;-84
2022/07/07 14:36:32;;;;;;;1.20;1.10;;;;;;;;;;5067335;28;20036;-83
2022/07/07 14:38:58;;;;;;;2.88;1.27;;;;;;;;;;5067808;28;20095;-85
2022/07/07 14:41:23;;;;;;;1.73;1.40;;;;;;;;;;5067116;28;20104;-83
2022/07/07 14:43:49;;;;;;;3.65;1.40;;;;;;;;;;5062337;28;20070;-84
2022/07/07 14:46:14;;;;;;;2.28;1.30;;;;;;;;;;5071813;28;20432;-85
2022/07/07 14:48:39;;;;;;;2.15;1.33;;;;;;;;;;5069904;28;20103;-85
2022/07/07 14:51:05;;;;;;;3.22;1.25;;;;;;;;;;5068051;28;20116;-84
2022/07/07 14:53:31;;;;;;;2.30;1.27;;;;;;;;;;5069850;28;20572;-86
2022/07/07 14:55:56;;;;;;;1.20;1.05;;;;;;;;;;5069259;28;20059;-85